createdAt,value
2022-10-22T00:02:22.618Z,100.00
2022-10-22T00:04:50.260Z,100.00
2022-10-22T00:07:18.819Z,100.00
2022-10-22T00:09:46.400Z,100.00
2022-10-22T00:12:15.440Z,100.00
2022-10-22T00:14:42.681Z,100.00
2022-10-22T00:17:11.615Z,100.00
2022-10-22T00:19:39.767Z,100.00
2022-10-22T00:22:08.506Z,100.00
2022-10-22T00:24:37.200Z,100.00
2022-10-22T00:27:04.224Z,100.00
2022-10-22T00:29:31.408Z,100.00
2022-10-22T00:31:58.213Z,100.00
2022-10-22T00:34:25.508Z,100.00
2022-10-22T00:36:52.684Z,100.00
2022-10-22T00:39:21.811Z,100.00
2022-10-22T00:41:50.671Z,100.00
2022-10-22T00:44:54.717Z,100.00
2022-10-22T00:47:23.592Z,100.00
2022-10-22T00:49:52.528Z,100.00
2022-10-22T00:52:19.844Z,100.00
2022-10-22T00:54:46.777Z,100.00
2022-10-22T00:57:13.540Z,100.00
2022-10-22T00:59:40.558Z,100.00
2022-10-22T01:02:07.243Z,100.00
2022-10-22T01:04:33.993Z,100.00
2022-10-22T01:07:01.234Z,100.00
2022-10-22T01:09:46.800Z,100.00
2022-10-22T01:12:34.238Z,100.00
2022-10-22T01:15:53.733Z,100.00
2022-10-22T01:18:29.575Z,100.00
2022-10-22T01:21:15.739Z,100.00
2022-10-22T01:24:09.232Z,100.00
2022-10-22T01:27:10.243Z,100.00
2022-10-22T01:29:42.436Z,100.00
2022-10-22T01:32:16.554Z,100.00
2022-10-22T01:34:46.676Z,100.00
2022-10-22T01:37:15.386Z,100.00
2022-10-22T01:39:46.487Z,100.00
2022-10-22T01:42:14.354Z,100.00
2022-10-22T01:44:41.499Z,100.00
2022-10-22T01:47:33.419Z,100.00
2022-10-22T01:50:32.355Z,100.00
2022-10-22T01:53:21.748Z,100.00
2022-10-22T01:55:57.575Z,100.00
2022-10-22T01:58:39.772Z,100.00
2022-10-22T02:01:16.826Z,100.00
2022-10-22T02:03:55.212Z,100.00
2022-10-22T02:06:24.799Z,100.00
2022-10-22T02:08:54.530Z,100.00
2022-10-22T02:11:21.571Z,100.00
2022-10-22T02:13:54.120Z,100.00
2022-10-22T02:16:34.610Z,100.00
2022-10-22T02:19:09.185Z,100.00
2022-10-22T02:21:35.933Z,100.00
2022-10-22T02:24:02.882Z,100.00
2022-10-22T02:26:44.751Z,100.00
2022-10-22T02:29:16.622Z,100.00
2022-10-22T02:31:45.449Z,100.00
2022-10-22T02:34:17.210Z,100.00
2022-10-22T02:36:48.183Z,100.00
2022-10-22T02:39:19.864Z,100.00
2022-10-22T02:41:47.094Z,100.00
2022-10-22T02:44:15.130Z,100.00
2022-10-22T02:46:43.238Z,100.00
2022-10-22T02:49:09.933Z,100.00
2022-10-22T02:51:36.678Z,100.00
2022-10-22T02:54:03.801Z,100.00
2022-10-22T02:56:30.569Z,100.00
2022-10-22T02:58:57.571Z,100.00
2022-10-22T03:01:24.375Z,100.00
2022-10-22T03:03:51.583Z,100.00
2022-10-22T03:06:18.781Z,100.00
2022-10-22T03:08:46.646Z,100.00
2022-10-22T03:11:13.721Z,100.00
2022-10-22T03:13:40.453Z,100.00
2022-10-22T03:16:07.291Z,100.00
2022-10-22T03:18:34.125Z,100.00
2022-10-22T03:21:12.656Z,100.00
2022-10-22T03:23:42.553Z,100.00
2022-10-22T03:26:12.697Z,100.00
2022-10-22T03:28:41.048Z,100.00
2022-10-22T03:31:08.204Z,100.00
2022-10-22T03:33:35.044Z,100.00
2022-10-22T03:36:02.061Z,100.00
2022-10-22T03:38:29.864Z,100.00
2022-10-22T03:40:56.717Z,100.00
2022-10-22T03:43:23.692Z,100.00
2022-10-22T03:45:50.367Z,100.00
2022-10-22T03:48:17.098Z,100.00
2022-10-22T03:50:44.044Z,100.00
2022-10-22T03:53:11.115Z,100.00
2022-10-22T03:55:40.781Z,100.00
2022-10-22T03:58:07.762Z,100.00
2022-10-22T04:00:35.767Z,100.00
2022-10-22T04:03:02.520Z,100.00
2022-10-22T04:05:29.320Z,100.00
2022-10-22T04:07:55.998Z,100.00
2022-10-22T04:10:22.682Z,100.00
2022-10-22T04:12:49.830Z,100.00
2022-10-22T04:15:16.667Z,100.00
2022-10-22T04:17:43.852Z,100.00
2022-10-22T04:20:11.279Z,100.00
2022-10-22T04:22:38.008Z,100.00
2022-10-22T04:25:05.479Z,100.00
2022-10-22T04:27:33.416Z,100.00
2022-10-22T04:30:00.725Z,100.00
2022-10-22T04:32:28.077Z,100.00
2022-10-22T04:34:54.837Z,100.00
2022-10-22T04:37:21.634Z,100.00
2022-10-22T04:39:48.325Z,100.00
2022-10-22T04:42:15.063Z,100.00
2022-10-22T04:44:41.805Z,100.00
2022-10-22T04:47:08.471Z,100.00
2022-10-22T04:49:35.794Z,100.00
2022-10-22T04:52:02.589Z,100.00
2022-10-22T04:54:32.264Z,100.00
2022-10-22T04:57:00.139Z,100.00
2022-10-22T04:59:26.934Z,100.00
2022-10-22T05:01:53.591Z,100.00
2022-10-22T05:04:20.385Z,100.00
2022-10-22T05:06:47.211Z,100.00
2022-10-22T05:09:17.370Z,100.00
2022-10-22T05:11:48.256Z,100.00
2022-10-22T05:14:20.623Z,100.00
2022-10-22T05:16:48.813Z,100.00
2022-10-22T05:19:24.002Z,100.00
2022-10-22T05:21:52.672Z,100.00
2022-10-22T05:24:19.472Z,100.00
2022-10-22T05:26:48.401Z,100.00
2022-10-22T05:29:15.231Z,100.00
2022-10-22T05:31:41.974Z,100.00
2022-10-22T05:34:08.906Z,100.00
2022-10-22T05:36:35.673Z,100.00
2022-10-22T05:39:02.569Z,100.00
2022-10-22T05:41:29.462Z,100.00
2022-10-22T05:44:00.387Z,100.00
2022-10-22T05:46:30.728Z,100.00
2022-10-22T05:49:00.724Z,100.00
2022-10-22T05:51:29.140Z,100.00
2022-10-22T05:53:58.636Z,100.00
2022-10-22T05:56:27.203Z,100.00
2022-10-22T05:58:53.996Z,100.00
2022-10-22T06:01:22.981Z,100.00
2022-10-22T06:03:52.918Z,100.00
2022-10-22T06:06:24.507Z,100.00
2022-10-22T06:08:53.555Z,100.00
2022-10-22T06:11:22.777Z,100.00
2022-10-22T06:13:50.821Z,100.00
2022-10-22T06:16:17.680Z,100.00
2022-10-22T06:18:44.440Z,100.00
2022-10-22T06:21:13.464Z,100.00
2022-10-22T06:23:41.042Z,100.00
2022-10-22T06:26:08.969Z,100.00
2022-10-22T06:28:36.418Z,100.00
2022-10-22T06:31:04.438Z,100.00
2022-10-22T06:33:34.014Z,100.00
2022-10-22T06:36:11.476Z,100.00
2022-10-22T06:38:38.411Z,100.00
2022-10-22T06:41:08.126Z,100.00
2022-10-22T06:43:35.451Z,100.00
2022-10-22T06:46:04.937Z,100.00
2022-10-22T06:48:31.799Z,100.00
2022-10-22T06:51:03.007Z,100.00
2022-10-22T06:53:30.164Z,100.00
2022-10-22T06:55:57.024Z,100.00
2022-10-22T06:58:23.908Z,100.00
2022-10-22T07:00:59.916Z,100.00
2022-10-22T07:03:26.701Z,100.00
2022-10-22T07:05:53.622Z,100.00
2022-10-22T07:08:20.403Z,100.00
2022-10-22T07:10:47.387Z,100.00
2022-10-22T07:13:14.289Z,100.00
2022-10-22T07:15:41.402Z,100.00
2022-10-22T07:18:08.214Z,100.00
2022-10-22T07:20:35.034Z,100.00
2022-10-22T07:23:01.919Z,100.00
2022-10-22T07:25:28.641Z,100.00
2022-10-22T07:27:55.383Z,100.00
2022-10-22T07:30:22.130Z,100.00
2022-10-22T07:32:48.968Z,100.00
2022-10-22T07:35:15.695Z,100.00
2022-10-22T07:37:43.297Z,100.00
2022-10-22T07:40:10.603Z,100.00
2022-10-22T07:42:37.296Z,100.00
2022-10-22T07:45:04.374Z,100.00
2022-10-22T07:47:31.225Z,100.00
2022-10-22T07:49:57.923Z,100.00
2022-10-22T07:52:24.612Z,100.00
2022-10-22T07:54:51.534Z,100.00
2022-10-22T07:57:18.257Z,100.00
2022-10-22T07:59:45.130Z,100.00
2022-10-22T08:02:12.749Z,100.00
2022-10-22T08:04:40.045Z,100.00
2022-10-22T08:07:06.784Z,100.00
2022-10-22T08:09:33.905Z,100.00
2022-10-22T08:12:01.655Z,100.00
2022-10-22T08:14:28.534Z,100.00
2022-10-22T08:16:55.252Z,100.00
2022-10-22T08:19:22.007Z,100.00
2022-10-22T08:21:48.853Z,100.00
2022-10-22T08:24:15.820Z,100.00
2022-10-22T08:26:42.517Z,100.00
2022-10-22T08:29:12.257Z,100.00
2022-10-22T08:31:38.924Z,99.71
2022-10-22T08:34:05.648Z,97.92
2022-10-22T08:36:32.491Z,96.72
2022-10-22T08:38:59.260Z,96.48
2022-10-22T08:41:26.179Z,96.06
2022-10-22T08:44:01.826Z,96.80
2022-10-22T08:46:40.424Z,97.68
2022-10-22T08:49:16.402Z,99.81
2022-10-22T08:51:43.248Z,100.00
2022-10-22T08:54:28.677Z,100.00
2022-10-22T08:57:24.350Z,100.00
2022-10-22T08:59:57.010Z,100.00
2022-10-22T09:03:03.881Z,100.00
2022-10-22T09:05:56.475Z,99.82
2022-10-22T09:08:23.728Z,100.00
2022-10-22T09:11:01.686Z,98.48
2022-10-22T09:13:29.523Z,97.55
2022-10-22T09:16:00.245Z,95.13
2022-10-22T09:18:30.111Z,90.74
2022-10-22T09:21:04.337Z,90.16
2022-10-22T09:23:39.760Z,91.99
2022-10-22T09:26:15.190Z,89.04
2022-10-22T09:28:43.412Z,90.03
2022-10-22T09:31:13.013Z,91.88
2022-10-22T09:33:41.183Z,91.60
2022-10-22T09:36:14.130Z,86.30
2022-10-22T09:38:45.294Z,87.32
2022-10-22T09:41:12.582Z,83.26
2022-10-22T09:43:39.297Z,88.76
2022-10-22T09:46:08.556Z,87.10
2022-10-22T09:48:39.224Z,84.61
2022-10-22T09:51:18.798Z,87.41
2022-10-22T09:53:57.700Z,86.51
2022-10-22T09:56:27.737Z,81.73
2022-10-22T09:58:57.460Z,79.61
2022-10-22T10:01:34.067Z,75.74
2022-10-22T10:04:10.166Z,77.39
2022-10-22T10:06:41.762Z,79.68
2022-10-22T10:09:24.281Z,78.95
2022-10-22T10:12:08.454Z,79.48
2022-10-22T10:15:06.790Z,77.48
2022-10-22T10:17:43.704Z,80.80
2022-10-22T10:20:14.478Z,77.85
2022-10-22T10:22:59.329Z,79.97
2022-10-22T10:25:40.846Z,75.40
2022-10-22T10:28:21.478Z,72.47
2022-10-22T10:30:57.262Z,74.89
2022-10-22T10:34:04.616Z,77.65
2022-10-22T10:37:09.040Z,77.77
2022-10-22T10:40:00.384Z,76.97
2022-10-22T10:42:29.829Z,69.76
2022-10-22T10:45:28.309Z,72.65
2022-10-22T10:48:37.072Z,65.42
2022-10-22T10:51:11.389Z,66.98
2022-10-22T10:53:51.175Z,73.61
2022-10-22T10:56:28.083Z,66.85
2022-10-22T10:59:11.512Z,61.93
2022-10-22T11:01:47.252Z,64.38
2022-10-22T11:04:38.900Z,59.74
2022-10-22T11:07:23.434Z,57.27
2022-10-22T11:10:30.732Z,54.32
2022-10-22T11:13:06.474Z,55.13
2022-10-22T11:15:35.740Z,53.07
2022-10-22T11:18:12.212Z,53.96
2022-10-22T11:21:01.280Z,53.21
2022-10-22T11:23:43.418Z,53.89
2022-10-22T11:26:29.957Z,55.75
2022-10-22T11:28:59.537Z,61.14
2022-10-22T11:31:27.491Z,58.10
2022-10-22T11:34:05.011Z,55.80
2022-10-22T11:36:43.621Z,54.47
2022-10-22T11:39:31.305Z,53.63
2022-10-22T11:42:02.001Z,50.86
2022-10-22T11:44:30.142Z,50.59
2022-10-22T11:47:08.373Z,49.47
2022-10-22T11:49:55.482Z,48.66
2022-10-22T11:52:26.526Z,48.63
2022-10-22T11:55:01.371Z,47.14
2022-10-22T11:57:39.345Z,46.04
2022-10-22T12:00:30.186Z,44.24
2022-10-22T12:03:16.649Z,43.46
2022-10-22T12:05:44.977Z,41.77
2022-10-22T12:08:19.903Z,41.89
2022-10-22T12:11:14.773Z,41.55
2022-10-22T12:14:13.373Z,41.00
2022-10-22T12:17:03.633Z,40.60
2022-10-22T12:19:34.917Z,41.28
2022-10-22T12:22:30.505Z,39.91
2022-10-22T12:25:02.235Z,39.91
2022-10-22T12:27:38.157Z,38.96
2022-10-22T12:30:34.577Z,38.18
2022-10-22T12:33:06.754Z,38.50
2022-10-22T12:35:41.670Z,38.03
2022-10-22T12:38:15.332Z,37.69
2022-10-22T12:40:45.889Z,38.88
2022-10-22T12:43:19.512Z,38.54
2022-10-22T12:45:49.292Z,38.07
2022-10-22T12:48:23.356Z,37.41
2022-10-22T12:50:55.915Z,36.24
2022-10-22T12:53:35.193Z,36.14
2022-10-22T12:56:04.864Z,36.54
2022-10-22T12:58:41.027Z,37.04
2022-10-22T13:01:11.960Z,37.90
2022-10-22T13:03:45.814Z,37.59
2022-10-22T13:06:18.759Z,37.32
2022-10-22T13:09:07.801Z,37.31
2022-10-22T13:11:40.497Z,36.33
2022-10-22T13:14:30.672Z,37.19
2022-10-22T13:17:17.619Z,36.47
2022-10-22T13:19:53.574Z,36.45
2022-10-22T13:22:28.364Z,36.18
2022-10-22T13:24:59.895Z,36.22
2022-10-22T13:27:28.301Z,36.03
2022-10-22T13:29:57.502Z,37.10
2022-10-22T13:32:32.060Z,37.53
2022-10-22T13:35:01.186Z,36.80
2022-10-22T13:37:29.956Z,36.78
2022-10-22T13:39:57.022Z,36.27
2022-10-22T13:42:23.728Z,36.93
2022-10-22T13:44:50.891Z,38.00
2022-10-22T13:47:35.905Z,38.11
2022-10-22T13:50:11.251Z,38.83
2022-10-22T13:52:44.429Z,40.12
2022-10-22T13:55:25.648Z,42.74
2022-10-22T13:57:56.650Z,42.59
2022-10-22T14:00:24.066Z,43.41
2022-10-22T14:02:54.293Z,43.87
2022-10-22T14:05:21.440Z,43.97
2022-10-22T14:07:49.066Z,44.74
2022-10-22T14:10:19.931Z,47.61
2022-10-22T14:12:52.395Z,47.13
2022-10-22T14:15:24.095Z,49.67
2022-10-22T14:17:56.942Z,47.51
2022-10-22T14:20:27.700Z,48.00
2022-10-22T14:22:55.321Z,49.68
2022-10-22T14:25:24.918Z,51.54
2022-10-22T14:27:52.285Z,50.61
2022-10-22T14:30:21.994Z,52.55
2022-10-22T14:32:49.975Z,51.03
2022-10-22T14:35:20.390Z,51.72
2022-10-22T14:37:47.302Z,52.39
2022-10-22T14:40:17.894Z,51.68
2022-10-22T14:42:47.298Z,53.50
2022-10-22T14:45:21.153Z,53.35
2022-10-22T14:47:49.297Z,54.72
2022-10-22T14:50:16.851Z,56.04
2022-10-22T14:52:44.692Z,57.63
2022-10-22T14:55:14.595Z,57.48
2022-10-22T14:57:41.919Z,57.42
2022-10-22T15:00:12.789Z,58.44
2022-10-22T15:02:39.907Z,59.38
2022-10-22T15:05:07.385Z,59.55
2022-10-22T15:07:34.598Z,59.60
2022-10-22T15:10:01.649Z,59.83
2022-10-22T15:12:29.210Z,60.77
2022-10-22T15:14:56.136Z,62.90
2022-10-22T15:17:22.939Z,63.37
2022-10-22T15:19:49.803Z,63.46
2022-10-22T15:22:17.275Z,64.21
2022-10-22T15:24:44.674Z,64.70
2022-10-22T15:27:14.897Z,65.34
2022-10-22T15:29:42.642Z,65.38
2022-10-22T15:32:12.859Z,64.74
2022-10-22T15:34:40.425Z,65.85
2022-10-22T15:37:09.688Z,66.81
2022-10-22T15:39:40.572Z,68.34
2022-10-22T15:42:09.548Z,69.04
2022-10-22T15:44:36.644Z,68.81
2022-10-22T15:47:04.312Z,68.95
2022-10-22T15:49:31.058Z,69.94
2022-10-22T15:51:57.820Z,70.12
2022-10-22T15:54:28.530Z,70.20
2022-10-22T15:56:56.488Z,70.68
2022-10-22T15:59:23.523Z,72.36
2022-10-22T16:01:50.259Z,73.15
2022-10-22T16:04:17.851Z,74.67
2022-10-22T16:06:49.700Z,75.89
2022-10-22T16:09:20.214Z,76.95
2022-10-22T16:11:47.250Z,77.69
2022-10-22T16:14:15.899Z,79.66
2022-10-22T16:16:45.016Z,80.22
2022-10-22T16:19:13.213Z,81.44
2022-10-22T16:21:40.611Z,82.53
2022-10-22T16:24:08.669Z,83.63
2022-10-22T16:26:35.927Z,85.14
2022-10-22T16:29:03.688Z,86.92
2022-10-22T16:31:30.476Z,87.60
2022-10-22T16:33:57.883Z,88.28
2022-10-22T16:36:25.183Z,87.73
2022-10-22T16:38:51.987Z,89.48
2022-10-22T16:41:20.987Z,91.27
2022-10-22T16:43:50.523Z,92.49
2022-10-22T16:46:19.377Z,92.65
2022-10-22T16:48:48.133Z,94.46
2022-10-22T16:51:17.516Z,94.32
2022-10-22T16:53:44.756Z,96.14
2022-10-22T16:56:13.986Z,97.62
2022-10-22T16:58:48.921Z,98.24
2022-10-22T17:01:18.250Z,98.11
2022-10-22T17:03:45.685Z,98.43
2022-10-22T17:06:12.664Z,99.01
2022-10-22T17:08:41.030Z,100.00
2022-10-22T17:11:17.748Z,100.00
2022-10-22T17:13:48.648Z,100.00
2022-10-22T17:16:19.260Z,100.00
2022-10-22T17:21:15.286Z,100.00
2022-10-22T17:23:42.691Z,100.00
2022-10-22T17:26:17.440Z,100.00
2022-10-22T17:28:44.655Z,100.00
2022-10-22T17:31:16.372Z,100.00
2022-10-22T17:33:43.323Z,100.00
2022-10-22T17:36:11.901Z,100.00
2022-10-22T17:38:40.515Z,100.00
2022-10-22T17:41:12.496Z,100.00
2022-10-22T17:43:41.522Z,100.00
2022-10-22T17:46:13.136Z,100.00
2022-10-22T17:48:39.841Z,100.00
2022-10-22T17:51:08.289Z,100.00
2022-10-22T17:53:36.000Z,100.00
2022-10-22T17:56:06.908Z,100.00
2022-10-22T17:58:33.627Z,100.00
2022-10-22T18:01:00.547Z,100.00
2022-10-22T18:03:27.841Z,100.00
2022-10-22T18:05:54.868Z,100.00
2022-10-22T18:08:24.138Z,100.00
2022-10-22T18:10:50.801Z,100.00
2022-10-22T18:13:17.494Z,100.00
2022-10-22T18:15:44.258Z,100.00
2022-10-22T18:18:13.657Z,100.00
2022-10-22T18:20:40.362Z,100.00
2022-10-22T18:23:07.114Z,100.00
2022-10-22T18:25:38.632Z,100.00
2022-10-22T18:28:05.265Z,100.00
2022-10-22T18:30:32.028Z,100.00
2022-10-22T18:32:58.687Z,100.00
2022-10-22T18:35:25.349Z,100.00
2022-10-22T18:37:52.023Z,100.00
2022-10-22T18:40:18.858Z,100.00
2022-10-22T18:42:45.909Z,100.00
2022-10-22T18:45:12.971Z,100.00
2022-10-22T18:47:41.545Z,100.00
2022-10-22T18:50:09.351Z,100.00
2022-10-22T18:52:36.014Z,100.00
2022-10-22T18:55:02.815Z,100.00
2022-10-22T18:57:29.672Z,100.00
2022-10-22T18:59:58.668Z,100.00
2022-10-22T19:02:26.538Z,100.00
2022-10-22T19:04:53.244Z,100.00
2022-10-22T19:07:19.883Z,100.00
2022-10-22T19:09:46.635Z,100.00
2022-10-22T19:12:14.977Z,100.00
2022-10-22T19:14:42.616Z,100.00
2022-10-22T19:17:09.400Z,100.00
2022-10-22T19:19:36.123Z,100.00
2022-10-22T19:22:03.071Z,100.00
2022-10-22T19:24:29.795Z,100.00
2022-10-22T19:26:56.465Z,100.00
2022-10-22T19:29:23.181Z,100.00
2022-10-22T19:31:50.922Z,100.00
2022-10-22T19:34:19.037Z,100.00
2022-10-22T19:36:46.043Z,100.00
2022-10-22T19:39:16.587Z,100.00
2022-10-22T19:41:43.654Z,100.00
2022-10-22T19:44:10.807Z,100.00
2022-10-22T19:46:37.570Z,100.00
2022-10-22T19:49:04.981Z,100.00
2022-10-22T19:51:33.749Z,100.00
2022-10-22T19:54:03.328Z,100.00
2022-10-22T19:56:30.678Z,100.00
2022-10-22T19:58:57.668Z,100.00
2022-10-22T20:01:25.694Z,100.00
2022-10-22T20:03:53.658Z,100.00
2022-10-22T20:06:21.958Z,100.00
2022-10-22T20:08:51.066Z,100.00
2022-10-22T20:11:23.690Z,100.00
2022-10-22T20:13:52.333Z,100.00
2022-10-22T20:16:23.259Z,100.00
2022-10-22T20:18:51.355Z,100.00
2022-10-22T20:21:21.824Z,100.00
2022-10-22T20:23:52.595Z,100.00
2022-10-22T20:26:20.230Z,100.00
2022-10-22T20:28:47.303Z,100.00
2022-10-22T20:31:18.903Z,100.00
2022-10-22T20:33:46.761Z,100.00
2022-10-22T20:36:17.134Z,100.00
2022-10-22T20:38:45.465Z,100.00
2022-10-22T20:41:15.643Z,100.00
2022-10-22T20:43:46.621Z,100.00
2022-10-22T20:46:22.908Z,100.00
2022-10-22T20:48:55.242Z,100.00
2022-10-22T20:51:22.422Z,100.00
2022-10-22T20:53:49.415Z,100.00
2022-10-22T20:56:16.953Z,100.00
2022-10-22T20:58:48.131Z,100.00
2022-10-22T21:01:24.036Z,100.00
2022-10-22T21:03:52.877Z,100.00
2022-10-22T21:06:23.085Z,100.00
2022-10-22T21:08:51.198Z,100.00
2022-10-22T21:11:19.035Z,100.00
2022-10-22T21:13:46.220Z,100.00
2022-10-22T21:16:14.435Z,100.00
2022-10-22T21:18:41.331Z,100.00
2022-10-22T21:21:09.064Z,100.00
2022-10-22T21:23:36.630Z,100.00
2022-10-22T21:26:04.334Z,100.00
2022-10-22T21:28:32.811Z,100.00
2022-10-22T21:30:59.514Z,100.00
2022-10-22T21:33:26.441Z,100.00
2022-10-22T21:35:55.009Z,100.00
2022-10-22T21:38:23.123Z,100.00
2022-10-22T21:40:50.643Z,100.00
2022-10-22T21:43:18.075Z,100.00
2022-10-22T21:45:45.002Z,100.00
2022-10-22T21:48:13.661Z,100.00
2022-10-22T21:50:42.235Z,100.00
2022-10-22T21:53:10.483Z,100.00
2022-10-22T21:55:41.732Z,100.00
2022-10-22T21:58:09.002Z,100.00
2022-10-22T22:00:36.411Z,100.00
2022-10-22T22:03:05.889Z,100.00
2022-10-22T22:05:32.558Z,100.00
2022-10-22T22:07:59.309Z,100.00
2022-10-22T22:10:26.556Z,100.00
2022-10-22T22:12:53.295Z,100.00
2022-10-22T22:15:20.462Z,100.00
2022-10-22T22:17:47.425Z,100.00
2022-10-22T22:20:14.385Z,100.00
2022-10-22T22:22:41.284Z,100.00
2022-10-22T22:25:08.605Z,100.00
2022-10-22T22:27:35.319Z,100.00
2022-10-22T22:30:02.038Z,100.00
2022-10-22T22:32:28.759Z,100.00
2022-10-22T22:34:55.456Z,100.00
2022-10-22T22:37:22.103Z,100.00
2022-10-22T22:39:48.773Z,100.00
2022-10-22T22:42:15.524Z,100.00
2022-10-22T22:44:42.166Z,100.00
2022-10-22T22:47:08.874Z,100.00
2022-10-22T22:49:36.843Z,100.00
2022-10-22T22:52:04.327Z,100.00
2022-10-22T22:54:31.028Z,100.00
2022-10-22T22:56:57.666Z,100.00
2022-10-22T22:59:24.401Z,100.00
2022-10-22T23:01:51.457Z,100.00
2022-10-22T23:04:23.612Z,100.00
2022-10-22T23:06:51.242Z,100.00
2022-10-22T23:11:47.833Z,100.00
2022-10-22T23:14:16.458Z,100.00
2022-10-22T23:16:46.492Z,100.00
2022-10-22T23:19:15.379Z,100.00
2022-10-22T23:21:46.021Z,100.00
2022-10-22T23:24:15.586Z,100.00
2022-10-22T23:26:45.030Z,100.00
2022-10-22T23:29:14.774Z,100.00
2022-10-22T23:31:42.569Z,100.00
2022-10-22T23:34:11.422Z,100.00
2022-10-22T23:36:39.187Z,100.00
2022-10-22T23:39:08.739Z,100.00
2022-10-22T23:41:35.540Z,100.00
2022-10-22T23:44:03.643Z,100.00
2022-10-22T23:46:30.493Z,100.00
2022-10-22T23:48:57.196Z,100.00
2022-10-22T23:51:24.010Z,100.00
2022-10-22T23:53:56.114Z,100.00
2022-10-22T23:56:22.856Z,100.00
2022-10-22T23:58:51.949Z,100.00
